Villa Castelli, Argentina
Current Conditions -  °F | °C
As of 7:00 PM on Friday 31 Oct 2014 (Local Time) from SCSE Reporting Station
Clear Clear  
Wind Chill: 17°   Ceiling: Unl
Heat Index: 17°   Visibility: 6mi
Dew Point: 11°   Wind: 9mph
Humidity: 68%   Direction: 280°W
Pressure: 29.91"   Gusts: NA
Location:  29°S, 68.18°W
Report Text: SCSE 312200Z 28008KT CAVOK 17/11 Q1013
Loading
Personal Weather Stations






























Interactive Weather Map
Tropical Storm Tracking
New forecast layout! Learn more

10-Day Weather Forecast

Advertisements
Track Severe Weather on mobile